»·PEaware :: N727JR KRKS-KASE

N727JR :: KRKS-KASE

FLIGHT INFORMATION

Flight Status: Arrived
Operator: Privately registered:
United States
More flights under this callsign
Pilot: Salim S. (29683)
Aircraft: BOEING 727-200
(B722)
More flights by this aircraft type
Origin: KRKS Rock Springs-Sweetwater
United States
Destination: KASE Aspen-Pitkin Co/Sardy
United States
More flights between these airports :: More routes between these airports
Route: +OCS J206 DBL
File this flight plan on PilotEdge
Remarks:
Altitude:
(Current/Filed)
27,000ft
Speed:
(Current/Filed)
230kts
Departed: 05-Jun-20 02:28 PM
Arrived: 05-Jun-20 03:21 PM
Distance/Time
Traveled:
664nm/0:53
Distance/Time
To Go:
Arrived

Flight Plot

Page will automatically refresh every two minutes.

Flight plan parsing failed; only flown route is shown


Map Options




Map Legend


Flown Route
Filed Route
Departure Airport
Arrival Airport
Navaid (VOR, NDB)
Fix

Horizontal Profiles

Position Reports

Time Latitude Longitude Heading Altitude Ground
Speed
05-Jun-20 14:04 41.598563 -109.064347 315 6738ft 0kts
05-Jun-20 14:05 41.598563 -109.064347 315 6738ft 0kts
05-Jun-20 14:06 41.598563 -109.064347 315 6738ft 0kts
05-Jun-20 14:07 41.598563 -109.064347 315 6738ft 0kts
05-Jun-20 14:08 41.598563 -109.064347 315 6738ft 0kts
05-Jun-20 14:09 41.598563 -109.064347 315 6738ft 0kts
05-Jun-20 14:10 41.598563 -109.064347 315 6738ft 0kts
05-Jun-20 14:11 41.598563 -109.064347 315 6738ft 0kts
05-Jun-20 14:12 41.598563 -109.064347 315 6738ft 0kts
05-Jun-20 14:13 41.598563 -109.064347 315 6738ft 0kts
05-Jun-20 14:14 41.598563 -109.064347 315 6738ft 0kts
05-Jun-20 14:15 41.598563 -109.064347 315 6738ft 0kts
05-Jun-20 14:16 41.598563 -109.064347 315 6738ft 0kts
05-Jun-20 14:17 41.598563 -109.064347 315 6738ft 0kts
05-Jun-20 14:18 41.598563 -109.064347 315 6738ft 0kts
05-Jun-20 14:19 41.598563 -109.064347 315 6738ft 0kts
05-Jun-20 14:20 41.598792 -109.064183 33 6738ft 3kts
05-Jun-20 14:21 41.599215 -109.062416 107 6737ft 10kts
05-Jun-20 14:22 41.598935 -109.061197 108 6736ft 0kts
05-Jun-20 14:23 41.598935 -109.061194 108 6736ft 0kts
05-Jun-20 14:24 41.598935 -109.061194 108 6736ft 0kts
05-Jun-20 14:25 41.598935 -109.061194 108 6736ft 0kts
05-Jun-20 14:26 41.598481 -109.060137 220 6738ft 4kts
05-Jun-20 14:27 41.583139 -109.082257 223 7663ft 120kts
05-Jun-20 14:28 41.561892 -109.113999 256 9917ft 122kts
05-Jun-20 14:29 41.594760 -109.124713 43 11769ft 175kts
05-Jun-20 14:30 41.607721 -109.065218 102 13628ft 171kts
05-Jun-20 14:31 41.598538 -109.003597 79 15344ft 184kts
05-Jun-20 14:32 41.632865 -108.950773 39 16894ft 196kts
05-Jun-20 14:33 41.673655 -108.948304 269 18334ft 151kts
05-Jun-20 14:34 41.646385 -108.977369 194 20457ft 143kts
05-Jun-20 14:35 41.608897 -108.986409 215 22607ft 133kts
05-Jun-20 14:36 41.568971 -108.984292 177 24607ft 159kts
05-Jun-20 14:37 41.528020 -108.950119 156 26419ft 186kts
05-Jun-20 14:38 41.481363 -108.902979 154 27010ft 247kts
05-Jun-20 14:39 41.421483 -108.841571 152 26996ft 290kts
05-Jun-20 14:40 41.355193 -108.773997 151 26984ft 307kts
05-Jun-20 14:41 41.286388 -108.703970 151 26973ft 313kts
05-Jun-20 14:42 41.216913 -108.633503 151 26962ft 315kts
05-Jun-20 14:44 41.146905 -108.562669 151 26953ft 316kts
05-Jun-20 14:45 41.076960 -108.492100 151 26945ft 315kts
05-Jun-20 14:46 41.007359 -108.422079 152 26946ft 311kts
05-Jun-20 14:47 40.938825 -108.353301 152 26944ft 306kts
05-Jun-20 14:48 40.873563 -108.287935 153 27069ft 300kts
05-Jun-20 14:49 40.806256 -108.222632 152 27053ft 302kts
05-Jun-20 14:50 40.739078 -108.155487 153 27049ft 302kts
05-Jun-20 14:51 40.671789 -108.088663 153 26670ft 302kts
05-Jun-20 14:52 40.604842 -108.022331 152 26071ft 301kts
05-Jun-20 14:53 40.537835 -107.956172 152 25424ft 301kts
05-Jun-20 14:54 40.470454 -107.889868 152 24722ft 302kts
05-Jun-20 14:55 40.403446 -107.823996 151 23970ft 301kts
05-Jun-20 14:56 40.336547 -107.758421 151 23160ft 297kts
05-Jun-20 14:57 40.270700 -107.694090 151 22299ft 294kts
05-Jun-20 14:58 40.205031 -107.630081 150 21385ft 294kts
05-Jun-20 14:59 40.140123 -107.566816 150 20948ft 281kts
05-Jun-20 15:00 40.078574 -107.507115 150 20943ft 271kts
05-Jun-20 15:00 40.028501 -107.458620 150 20942ft 268kts
05-Jun-20 15:02 39.958699 -107.391178 150 20930ft 267kts
05-Jun-20 15:03 39.899365 -107.334000 151 20954ft 265kts
05-Jun-20 15:03 39.850396 -107.287299 151 21053ft 264kts
05-Jun-20 15:04 39.790870 -107.230097 151 21053ft 266kts
05-Jun-20 15:06 39.720936 -107.163184 151 21046ft 271kts
05-Jun-20 15:06 39.670486 -107.114936 151 21038ft 269kts
05-Jun-20 15:07 39.609899 -107.057179 151 20957ft 271kts
05-Jun-20 15:08 39.548494 -106.996231 140 20355ft 290kts
05-Jun-20 15:09 39.512727 -106.899996 110 19346ft 305kts
05-Jun-20 15:10 39.488999 -106.797788 109 18268ft 287kts
05-Jun-20 15:11 39.434560 -106.753049 194 17177ft 224kts
05-Jun-20 15:12 39.397951 -106.795797 279 16165ft 180kts
05-Jun-20 15:13 39.424356 -106.843741 304 15001ft 161kts
05-Jun-20 15:14 39.438843 -106.897856 265 14085ft 179kts
05-Jun-20 15:15 39.408040 -106.956815 208 13576ft 230kts
05-Jun-20 15:16 39.343756 -106.941193 148 12841ft 263kts
05-Jun-20 15:17 39.293569 -106.899893 164 12013ft 127kts
05-Jun-20 15:18 39.264018 -106.886852 171 9325ft 105kts
05-Jun-20 15:19 39.239866 -106.876651 165 8062ft 85kts
05-Jun-20 15:20 39.223328 -106.868553 105 7837ft 22kts
05-Jun-20 15:21 39.222198 -106.867207 158 7837ft 6kts
05-Jun-20 15:22 39.221822 -106.865454 257 7837ft 6kts
05-Jun-20 15:23 39.221789 -106.865600 247 7837ft 0kts
05-Jun-20 15:24 39.221789 -106.865600 247 7837ft 0kts
05-Jun-20 15:25 39.221789 -106.865600 247 7837ft 0kts
05-Jun-20 15:26 39.221789 -106.865600 247 7837ft 0kts
05-Jun-20 15:27 39.221789 -106.865600 247 7837ft 0kts
05-Jun-20 15:28 39.221789 -106.865600 247 7837ft 0kts
05-Jun-20 15:29 39.221789 -106.865600 247 7837ft 0kts
05-Jun-20 15:30 39.221789 -106.865600 247 7837ft 0kts
05-Jun-20 15:31 35.238248 -120.639995 308 218ft 0kts
05-Jun-20 15:32 35.238248 -120.639995 308 218ft 0kts
05-Jun-20 15:33 35.238248 -120.639995 308 218ft 0kts
05-Jun-20 15:34 35.238248 -120.639995 308 218ft 0kts

Navigation Log

Ident Type
Flight plan parsing failed, navigation log unavailable